sensor_id;sensor_type;location;lat;lon;timestamp;P1;durP1;ratioP1;P2;durP2;ratioP2
16139;SDS011;8175;49.326;12.690;2023-04-05T00:00:37;4.50;;;2.70;;
16139;SDS011;8175;49.326;12.690;2023-04-05T00:03:03;3.70;;;2.80;;
16139;SDS011;8175;49.326;12.690;2023-04-05T00:05:29;4.47;;;2.73;;
16139;SDS011;8175;49.326;12.690;2023-04-05T00:07:56;3.83;;;2.87;;
16139;SDS011;8175;49.326;12.690;2023-04-05T00:10:23;2.87;;;2.40;;
16139;SDS011;8175;49.326;12.690;2023-04-05T00:12:49;3.27;;;2.73;;
16139;SDS011;8175;49.326;12.690;2023-04-05T00:15:15;5.57;;;2.97;;
16139;SDS011;8175;49.326;12.690;2023-04-05T00:17:40;3.03;;;2.27;;
16139;SDS011;8175;49.326;12.690;2023-04-05T00:20:07;3.40;;;2.00;;
16139;SDS011;8175;49.326;12.690;2023-04-05T00:22:35;5.43;;;2.30;;
16139;SDS011;8175;49.326;12.690;2023-04-05T00:25:02;3.47;;;2.37;;
16139;SDS011;8175;49.326;12.690;2023-04-05T00:27:28;3.97;;;2.47;;
16139;SDS011;8175;49.326;12.690;2023-04-05T00:29:54;3.43;;;2.97;;
16139;SDS011;8175;49.326;12.690;2023-04-05T00:32:20;3.40;;;2.20;;
16139;SDS011;8175;49.326;12.690;2023-04-05T00:34:46;3.53;;;2.73;;
16139;SDS011;8175;49.326;12.690;2023-04-05T00:37:11;3.27;;;2.97;;
16139;SDS011;8175;49.326;12.690;2023-04-05T00:39:37;7.37;;;2.77;;
16139;SDS011;8175;49.326;12.690;2023-04-05T00:42:03;3.07;;;2.30;;
16139;SDS011;8175;49.326;12.690;2023-04-05T00:44:30;3.37;;;2.67;;
16139;SDS011;8175;49.326;12.690;2023-04-05T00:47:07;5.77;;;2.80;;
16139;SDS011;8175;49.326;12.690;2023-04-05T00:49:34;3.43;;;2.80;;
16139;SDS011;8175;49.326;12.690;2023-04-05T00:52:00;3.80;;;3.00;;
16139;SDS011;8175;49.326;12.690;2023-04-05T00:54:27;3.27;;;2.40;;
16139;SDS011;8175;49.326;12.690;2023-04-05T00:56:56;2.67;;;2.07;;
16139;SDS011;8175;49.326;12.690;2023-04-05T00:59:23;6.57;;;3.43;;
16139;SDS011;8175;49.326;12.690;2023-04-05T01:01:54;4.23;;;2.90;;
16139;SDS011;8175;49.326;12.690;2023-04-05T01:04:27;4.50;;;3.03;;
16139;SDS011;8175;49.326;12.690;2023-04-05T01:09:40;4.70;;;3.50;;
16139;SDS011;8175;49.326;12.690;2023-04-05T01:12:17;2.90;;;2.60;;
16139;SDS011;8175;49.326;12.690;2023-04-05T01:14:45;3.40;;;3.10;;
16139;SDS011;8175;49.326;12.690;2023-04-05T01:17:14;5.50;;;3.13;;
16139;SDS011;8175;49.326;12.690;2023-04-05T01:19:46;3.50;;;2.60;;
16139;SDS011;8175;49.326;12.690;2023-04-05T05:43:31;2.10;;;1.83;;
16139;SDS011;8175;49.326;12.690;2023-04-05T05:45:59;2.27;;;1.57;;
16139;SDS011;8175;49.326;12.690;2023-04-05T05:48:25;2.27;;;2.07;;
16139;SDS011;8175;49.326;12.690;2023-04-05T05:50:51;2.33;;;2.13;;
16139;SDS011;8175;49.326;12.690;2023-04-05T06:10:45;2.83;;;2.50;;
16139;SDS011;8175;49.326;12.690;2023-04-05T06:13:10;3.23;;;2.87;;
16139;SDS011;8175;49.326;12.690;2023-04-05T06:15:36;2.53;;;2.33;;
16139;SDS011;8175;49.326;12.690;2023-04-05T06:18:02;2.70;;;2.40;;
16139;SDS011;8175;49.326;12.690;2023-04-05T06:20:27;3.13;;;2.93;;
16139;SDS011;8175;49.326;12.690;2023-04-05T06:27:36;12.80;;;8.50;;
16139;SDS011;8175;49.326;12.690;2023-04-05T06:30:02;8.90;;;5.17;;
16139;SDS011;8175;49.326;12.690;2023-04-05T06:32:28;8.60;;;3.47;;
16139;SDS011;8175;49.326;12.690;2023-04-05T06:34:54;3.63;;;2.50;;
16139;SDS011;8175;49.326;12.690;2023-04-05T06:37:19;6.20;;;5.50;;
16139;SDS011;8175;49.326;12.690;2023-04-05T06:39:45;8.90;;;5.77;;
16139;SDS011;8175;49.326;12.690;2023-04-05T06:42:10;8.67;;;6.10;;
16139;SDS011;8175;49.326;12.690;2023-04-05T06:44:36;7.03;;;5.43;;
16139;SDS011;8175;49.326;12.690;2023-04-05T06:47:02;9.13;;;5.60;;
16139;SDS011;8175;49.326;12.690;2023-04-05T06:49:28;15.43;;;8.83;;
16139;SDS011;8175;49.326;12.690;2023-04-05T06:51:54;12.43;;;8.07;;
16139;SDS011;8175;49.326;12.690;2023-04-05T06:54:20;8.60;;;6.70;;
16139;SDS011;8175;49.326;12.690;2023-04-05T06:56:48;7.83;;;4.90;;
16139;SDS011;8175;49.326;12.690;2023-04-05T06:59:13;6.30;;;4.43;;
16139;SDS011;8175;49.326;12.690;2023-04-05T07:01:39;8.77;;;5.77;;
16139;SDS011;8175;49.326;12.690;2023-04-05T07:04:04;7.70;;;5.20;;
16139;SDS011;8175;49.326;12.690;2023-04-05T07:06:30;4.83;;;3.07;;
16139;SDS011;8175;49.326;12.690;2023-04-05T07:08:58;6.30;;;3.90;;
16139;SDS011;8175;49.326;12.690;2023-04-05T07:11:24;5.93;;;3.83;;
16139;SDS011;8175;49.326;12.690;2023-04-05T07:13:51;5.30;;;2.90;;
16139;SDS011;8175;49.326;12.690;2023-04-05T07:16:16;4.80;;;2.90;;
16139;SDS011;8175;49.326;12.690;2023-04-05T07:18:46;3.20;;;2.33;;
16139;SDS011;8175;49.326;12.690;2023-04-05T07:21:13;3.53;;;1.90;;
16139;SDS011;8175;49.326;12.690;2023-04-05T07:23:38;3.33;;;2.40;;
16139;SDS011;8175;49.326;12.690;2023-04-05T07:26:04;3.97;;;1.80;;
16139;SDS011;8175;49.326;12.690;2023-04-05T07:28:31;2.33;;;2.00;;
16139;SDS011;8175;49.326;12.690;2023-04-05T07:30:59;3.57;;;2.33;;
16139;SDS011;8175;49.326;12.690;2023-04-05T07:33:25;2.63;;;1.60;;
16139;SDS011;8175;49.326;12.690;2023-04-05T07:35:54;2.93;;;1.80;;
16139;SDS011;8175;49.326;12.690;2023-04-05T07:38:20;1.77;;;1.60;;
16139;SDS011;8175;49.326;12.690;2023-04-05T07:40:47;3.17;;;1.70;;
16139;SDS011;8175;49.326;12.690;2023-04-05T07:43:13;2.60;;;1.70;;
16139;SDS011;8175;49.326;12.690;2023-04-05T07:45:39;2.90;;;2.10;;
16139;SDS011;8175;49.326;12.690;2023-04-05T07:48:05;2.50;;;1.80;;
16139;SDS011;8175;49.326;12.690;2023-04-05T07:50:31;2.87;;;1.93;;
16139;SDS011;8175;49.326;12.690;2023-04-05T07:52:59;1.57;;;1.47;;
16139;SDS011;8175;49.326;12.690;2023-04-05T07:55:24;2.67;;;1.67;;
16139;SDS011;8175;49.326;12.690;2023-04-05T07:57:51;2.87;;;2.10;;
16139;SDS011;8175;49.326;12.690;2023-04-05T08:00:17;4.63;;;1.70;;
16139;SDS011;8175;49.326;12.690;2023-04-05T08:02:43;3.47;;;2.00;;
16139;SDS011;8175;49.326;12.690;2023-04-05T08:05:10;2.73;;;1.70;;
16139;SDS011;8175;49.326;12.690;2023-04-05T08:07:35;2.67;;;2.07;;
16139;SDS011;8175;49.326;12.690;2023-04-05T08:10:02;2.67;;;2.17;;
16139;SDS011;8175;49.326;12.690;2023-04-05T08:12:29;2.00;;;1.57;;
16139;SDS011;8175;49.326;12.690;2023-04-05T08:14:55;3.10;;;1.53;;
16139;SDS011;8175;49.326;12.690;2023-04-05T08:17:21;1.80;;;1.70;;
16139;SDS011;8175;49.326;12.690;2023-04-05T08:19:50;3.13;;;1.57;;
16139;SDS011;8175;49.326;12.690;2023-04-05T08:22:17;2.90;;;2.23;;
16139;SDS011;8175;49.326;12.690;2023-04-05T08:24:43;1.93;;;1.73;;
16139;SDS011;8175;49.326;12.690;2023-04-05T08:27:09;1.63;;;1.53;;
16139;SDS011;8175;49.326;12.690;2023-04-05T08:29:35;2.10;;;1.50;;
16139;SDS011;8175;49.326;12.690;2023-04-05T08:32:01;2.43;;;1.63;;
16139;SDS011;8175;49.326;12.690;2023-04-05T08:34:27;3.03;;;1.70;;
16139;SDS011;8175;49.326;12.690;2023-04-05T08:36:56;2.83;;;1.90;;
16139;SDS011;8175;49.326;12.690;2023-04-05T08:39:23;4.87;;;2.20;;
16139;SDS011;8175;49.326;12.690;2023-04-05T08:44:54;2.23;;;1.63;;
16139;SDS011;8175;49.326;12.690;2023-04-05T08:47:23;3.43;;;2.03;;
16139;SDS011;8175;49.326;12.690;2023-04-05T08:49:49;1.90;;;1.70;;
16139;SDS011;8175;49.326;12.690;2023-04-05T08:52:15;2.33;;;2.07;;
16139;SDS011;8175;49.326;12.690;2023-04-05T08:54:41;3.73;;;2.00;;
16139;SDS011;8175;49.326;12.690;2023-04-05T08:57:06;3.40;;;2.00;;
16139;SDS011;8175;49.326;12.690;2023-04-05T08:59:35;3.73;;;2.03;;
16139;SDS011;8175;49.326;12.690;2023-04-05T09:02:03;3.60;;;2.13;;
16139;SDS011;8175;49.326;12.690;2023-04-05T09:04:36;2.97;;;1.80;;
16139;SDS011;8175;49.326;12.690;2023-04-05T09:07:08;2.60;;;2.17;;
16139;SDS011;8175;49.326;12.690;2023-04-05T09:09:35;2.83;;;2.00;;
16139;SDS011;8175;49.326;12.690;2023-04-05T09:12:05;3.63;;;2.53;;
16139;SDS011;8175;49.326;12.690;2023-04-05T09:14:35;3.00;;;2.10;;
16139;SDS011;8175;49.326;12.690;2023-04-05T09:17:02;2.30;;;1.83;;
16139;SDS011;8175;49.326;12.690;2023-04-05T09:19:28;3.33;;;1.93;;
16139;SDS011;8175;49.326;12.690;2023-04-05T09:21:58;2.80;;;2.10;;
16139;SDS011;8175;49.326;12.690;2023-04-05T09:24:34;4.73;;;3.67;;
16139;SDS011;8175;49.326;12.690;2023-04-05T09:27:11;3.27;;;2.23;;
16139;SDS011;8175;49.326;12.690;2023-04-05T09:29:38;3.37;;;2.00;;
16139;SDS011;8175;49.326;12.690;2023-04-05T09:32:09;3.03;;;2.07;;
16139;SDS011;8175;49.326;12.690;2023-04-05T09:34:36;4.33;;;2.33;;
16139;SDS011;8175;49.326;12.690;2023-04-05T09:37:16;3.43;;;2.07;;
16139;SDS011;8175;49.326;12.690;2023-04-05T09:39:43;5.10;;;2.33;;
16139;SDS011;8175;49.326;12.690;2023-04-05T09:42:11;3.43;;;2.53;;
16139;SDS011;8175;49.326;12.690;2023-04-05T09:44:58;4.10;;;2.43;;
16139;SDS011;8175;49.326;12.690;2023-04-05T09:47:30;2.97;;;2.07;;
16139;SDS011;8175;49.326;12.690;2023-04-05T09:49:58;2.40;;;2.20;;
16139;SDS011;8175;49.326;12.690;2023-04-05T09:52:26;3.23;;;2.20;;
16139;SDS011;8175;49.326;12.690;2023-04-05T09:54:54;3.50;;;2.70;;
16139;SDS011;8175;49.326;12.690;2023-04-05T09:57:24;3.93;;;2.57;;
16139;SDS011;8175;49.326;12.690;2023-04-05T09:59:51;4.13;;;2.43;;
16139;SDS011;8175;49.326;12.690;2023-04-05T10:02:18;2.93;;;2.20;;
16139;SDS011;8175;49.326;12.690;2023-04-05T10:04:45;4.20;;;2.47;;
16139;SDS011;8175;49.326;12.690;2023-04-05T10:07:13;2.47;;;1.90;;
16139;SDS011;8175;49.326;12.690;2023-04-05T10:09:40;4.67;;;2.40;;
16139;SDS011;8175;49.326;12.690;2023-04-05T10:12:08;4.40;;;2.40;;
16139;SDS011;8175;49.326;12.690;2023-04-05T10:14:35;2.83;;;2.17;;
16139;SDS011;8175;49.326;12.690;2023-04-05T10:19:40;3.30;;;2.43;;
16139;SDS011;8175;49.326;12.690;2023-04-05T10:22:40;3.17;;;2.17;;
16139;SDS011;8175;49.326;12.690;2023-04-05T10:27:54;3.07;;;2.27;;
16139;SDS011;8175;49.326;12.690;2023-04-05T10:30:28;2.30;;;2.10;;
16139;SDS011;8175;49.326;12.690;2023-04-05T10:38:40;3.13;;;2.20;;
16139;SDS011;8175;49.326;12.690;2023-04-05T10:41:25;4.70;;;1.93;;
16139;SDS011;8175;49.326;12.690;2023-04-05T10:43:53;3.47;;;2.13;;
16139;SDS011;8175;49.326;12.690;2023-04-05T10:46:21;2.20;;;1.77;;
16139;SDS011;8175;49.326;12.690;2023-04-05T10:51:48;4.67;;;3.20;;
16139;SDS011;8175;49.326;12.690;2023-04-05T10:54:15;10.30;;;5.73;;
16139;SDS011;8175;49.326;12.690;2023-04-05T10:56:43;4.53;;;2.83;;
16139;SDS011;8175;49.326;12.690;2023-04-05T10:59:10;2.97;;;2.67;;
16139;SDS011;8175;49.326;12.690;2023-04-05T11:01:38;2.53;;;2.07;;
16139;SDS011;8175;49.326;12.690;2023-04-05T11:04:12;2.33;;;1.90;;
16139;SDS011;8175;49.326;12.690;2023-04-05T11:06:38;3.50;;;2.07;;
16139;SDS011;8175;49.326;12.690;2023-04-05T11:09:12;3.70;;;1.90;;
16139;SDS011;8175;49.326;12.690;2023-04-05T11:11:41;2.80;;;2.00;;
16139;SDS011;8175;49.326;12.690;2023-04-05T11:14:18;3.30;;;2.23;;
16139;SDS011;8175;49.326;12.690;2023-04-05T11:16:48;3.80;;;2.43;;
16139;SDS011;8175;49.326;12.690;2023-04-05T11:19:18;2.43;;;2.10;;
16139;SDS011;8175;49.326;12.690;2023-04-05T11:21:44;5.57;;;2.87;;
16139;SDS011;8175;49.326;12.690;2023-04-05T11:24:11;3.10;;;2.20;;
16139;SDS011;8175;49.326;12.690;2023-04-05T11:29:08;3.23;;;2.30;;
16139;SDS011;8175;49.326;12.690;2023-04-05T11:31:34;3.13;;;2.13;;
16139;SDS011;8175;49.326;12.690;2023-04-05T11:34:03;2.53;;;2.33;;
16139;SDS011;8175;49.326;12.690;2023-04-05T11:36:43;3.43;;;2.17;;
16139;SDS011;8175;49.326;12.690;2023-04-05T11:41:46;3.30;;;2.40;;
16139;SDS011;8175;49.326;12.690;2023-04-05T11:44:18;4.03;;;2.77;;
16139;SDS011;8175;49.326;12.690;2023-04-05T11:46:45;3.20;;;2.40;;
16139;SDS011;8175;49.326;12.690;2023-04-05T11:49:11;3.20;;;2.27;;
16139;SDS011;8175;49.326;12.690;2023-04-05T11:51:41;2.97;;;2.50;;
16139;SDS011;8175;49.326;12.690;2023-04-05T11:54:07;3.47;;;2.60;;
16139;SDS011;8175;49.326;12.690;2023-04-05T11:56:36;3.20;;;2.20;;
16139;SDS011;8175;49.326;12.690;2023-04-05T11:59:02;2.37;;;2.17;;
16139;SDS011;8175;49.326;12.690;2023-04-05T12:01:27;3.07;;;2.07;;
16139;SDS011;8175;49.326;12.690;2023-04-05T12:03:53;2.80;;;2.23;;
16139;SDS011;8175;49.326;12.690;2023-04-05T12:06:21;5.53;;;3.43;;
16139;SDS011;8175;49.326;12.690;2023-04-05T12:08:47;4.17;;;2.80;;
16139;SDS011;8175;49.326;12.690;2023-04-05T12:11:23;3.67;;;2.27;;
16139;SDS011;8175;49.326;12.690;2023-04-05T12:14:00;3.07;;;2.13;;
16139;SDS011;8175;49.326;12.690;2023-04-05T12:16:28;2.93;;;2.07;;
16139;SDS011;8175;49.326;12.690;2023-04-05T12:18:58;2.80;;;2.13;;
16139;SDS011;8175;49.326;12.690;2023-04-05T12:21:25;2.57;;;1.77;;
16139;SDS011;8175;49.326;12.690;2023-04-05T12:23:52;2.30;;;2.07;;
16139;SDS011;8175;49.326;12.690;2023-04-05T12:26:18;2.90;;;2.07;;
16139;SDS011;8175;49.326;12.690;2023-04-05T12:31:38;2.73;;;2.53;;
16139;SDS011;8175;49.326;12.690;2023-04-05T12:34:05;2.80;;;1.93;;
16139;SDS011;8175;49.326;12.690;2023-04-05T12:36:31;2.77;;;2.00;;
16139;SDS011;8175;49.326;12.690;2023-04-05T12:38:57;2.60;;;2.20;;
16139;SDS011;8175;49.326;12.690;2023-04-05T12:41:29;3.67;;;2.57;;
16139;SDS011;8175;49.326;12.690;2023-04-05T12:43:55;3.10;;;2.53;;
16139;SDS011;8175;49.326;12.690;2023-04-05T12:46:41;3.00;;;2.70;;
16139;SDS011;8175;49.326;12.690;2023-04-05T12:49:12;9.50;;;6.33;;
16139;SDS011;8175;49.326;12.690;2023-04-05T12:51:43;3.83;;;2.57;;
16139;SDS011;8175;49.326;12.690;2023-04-05T12:54:28;4.23;;;2.40;;
16139;SDS011;8175;49.326;12.690;2023-04-05T12:56:55;3.67;;;2.37;;
16139;SDS011;8175;49.326;12.690;2023-04-05T12:59:21;2.40;;;2.20;;
16139;SDS011;8175;49.326;12.690;2023-04-05T13:01:47;2.23;;;2.03;;
16139;SDS011;8175;49.326;12.690;2023-04-05T13:04:13;2.40;;;2.20;;
16139;SDS011;8175;49.326;12.690;2023-04-05T13:06:39;4.07;;;2.73;;
16139;SDS011;8175;49.326;12.690;2023-04-05T13:09:05;2.53;;;2.30;;
16139;SDS011;8175;49.326;12.690;2023-04-05T13:11:30;2.13;;;1.93;;
16139;SDS011;8175;49.326;12.690;2023-04-05T13:13:56;2.47;;;2.27;;
16139;SDS011;8175;49.326;12.690;2023-04-05T13:16:22;2.77;;;2.33;;
16139;SDS011;8175;49.326;12.690;2023-04-05T13:18:47;2.40;;;2.20;;
16139;SDS011;8175;49.326;12.690;2023-04-05T13:21:13;2.80;;;2.43;;
16139;SDS011;8175;49.326;12.690;2023-04-05T13:23:39;5.97;;;2.70;;
16139;SDS011;8175;49.326;12.690;2023-04-05T13:26:05;3.13;;;2.13;;
16139;SDS011;8175;49.326;12.690;2023-04-05T13:28:31;4.83;;;2.40;;
16139;SDS011;8175;49.326;12.690;2023-04-05T13:30:58;3.60;;;2.17;;
16139;SDS011;8175;49.326;12.690;2023-04-05T13:33:24;2.67;;;2.23;;
16139;SDS011;8175;49.326;12.690;2023-04-05T13:35:49;3.50;;;2.70;;
16139;SDS011;8175;49.326;12.690;2023-04-05T13:38:15;3.00;;;2.70;;
16139;SDS011;8175;49.326;12.690;2023-04-05T13:40:41;2.70;;;2.33;;
16139;SDS011;8175;49.326;12.690;2023-04-05T13:43:06;2.60;;;2.27;;
16139;SDS011;8175;49.326;12.690;2023-04-05T13:45:32;2.77;;;2.20;;
16139;SDS011;8175;49.326;12.690;2023-04-05T13:47:58;2.70;;;2.20;;
16139;SDS011;8175;49.326;12.690;2023-04-05T13:50:26;2.90;;;2.03;;
16139;SDS011;8175;49.326;12.690;2023-04-05T13:52:52;2.63;;;2.40;;
16139;SDS011;8175;49.326;12.690;2023-04-05T13:55:18;3.43;;;2.83;;
16139;SDS011;8175;49.326;12.690;2023-04-05T13:57:43;2.70;;;2.43;;
16139;SDS011;8175;49.326;12.690;2023-04-05T14:00:09;2.30;;;2.13;;
16139;SDS011;8175;49.326;12.690;2023-04-05T14:02:35;3.00;;;2.67;;
16139;SDS011;8175;49.326;12.690;2023-04-05T14:05:01;10.33;;;4.53;;
16139;SDS011;8175;49.326;12.690;2023-04-05T14:07:26;2.70;;;2.50;;
16139;SDS011;8175;49.326;12.690;2023-04-05T14:09:52;6.90;;;3.93;;
16139;SDS011;8175;49.326;12.690;2023-04-05T14:12:18;3.23;;;2.33;;
16139;SDS011;8175;49.326;12.690;2023-04-05T14:14:44;3.23;;;2.73;;
16139;SDS011;8175;49.326;12.690;2023-04-05T14:17:10;3.60;;;2.47;;
16139;SDS011;8175;49.326;12.690;2023-04-05T14:19:37;1.90;;;1.77;;
16139;SDS011;8175;49.326;12.690;2023-04-05T14:22:03;3.63;;;2.20;;
16139;SDS011;8175;49.326;12.690;2023-04-05T14:24:29;3.67;;;2.20;;
16139;SDS011;8175;49.326;12.690;2023-04-05T14:26:54;2.20;;;2.00;;
16139;SDS011;8175;49.326;12.690;2023-04-05T14:29:20;2.63;;;2.00;;
16139;SDS011;8175;49.326;12.690;2023-04-05T14:31:46;3.33;;;2.30;;
16139;SDS011;8175;49.326;12.690;2023-04-05T14:34:12;3.83;;;2.60;;
16139;SDS011;8175;49.326;12.690;2023-04-05T14:36:38;3.67;;;2.27;;
16139;SDS011;8175;49.326;12.690;2023-04-05T14:39:04;3.60;;;2.37;;
16139;SDS011;8175;49.326;12.690;2023-04-05T14:41:29;3.47;;;2.20;;
16139;SDS011;8175;49.326;12.690;2023-04-05T14:43:55;2.70;;;2.43;;
16139;SDS011;8175;49.326;12.690;2023-04-05T14:46:21;3.60;;;3.30;;
16139;SDS011;8175;49.326;12.690;2023-04-05T14:48:46;2.83;;;2.17;;
16139;SDS011;8175;49.326;12.690;2023-04-05T14:51:12;2.50;;;2.30;;
16139;SDS011;8175;49.326;12.690;2023-04-05T14:53:38;2.60;;;2.40;;
16139;SDS011;8175;49.326;12.690;2023-04-05T14:56:04;5.27;;;4.80;;
16139;SDS011;8175;49.326;12.690;2023-04-05T14:58:30;4.00;;;2.53;;
16139;SDS011;8175;49.326;12.690;2023-04-05T15:00:57;4.43;;;2.60;;
16139;SDS011;8175;49.326;12.690;2023-04-05T15:03:23;3.67;;;2.50;;
16139;SDS011;8175;49.326;12.690;2023-04-05T15:05:49;2.20;;;2.00;;
16139;SDS011;8175;49.326;12.690;2023-04-05T15:08:15;11.60;;;5.53;;
16139;SDS011;8175;49.326;12.690;2023-04-05T15:10:40;2.70;;;2.47;;
16139;SDS011;8175;49.326;12.690;2023-04-05T15:13:07;4.33;;;2.70;;
16139;SDS011;8175;49.326;12.690;2023-04-05T15:15:34;3.00;;;2.13;;
16139;SDS011;8175;49.326;12.690;2023-04-05T15:18:00;2.47;;;2.27;;
16139;SDS011;8175;49.326;12.690;2023-04-05T15:20:27;2.67;;;2.10;;
16139;SDS011;8175;49.326;12.690;2023-04-05T15:22:52;2.93;;;2.33;;
16139;SDS011;8175;49.326;12.690;2023-04-05T15:25:18;3.37;;;2.40;;
16139;SDS011;8175;49.326;12.690;2023-04-05T15:27:44;3.10;;;2.20;;
16139;SDS011;8175;49.326;12.690;2023-04-05T15:30:09;3.47;;;2.53;;
16139;SDS011;8175;49.326;12.690;2023-04-05T15:32:35;2.97;;;2.40;;
16139;SDS011;8175;49.326;12.690;2023-04-05T15:35:02;2.30;;;2.10;;
16139;SDS011;8175;49.326;12.690;2023-04-05T15:37:28;4.93;;;2.00;;
16139;SDS011;8175;49.326;12.690;2023-04-05T15:39:53;2.70;;;2.50;;
16139;SDS011;8175;49.326;12.690;2023-04-05T15:42:19;3.87;;;2.83;;
16139;SDS011;8175;49.326;12.690;2023-04-05T15:44:48;5.37;;;2.23;;
16139;SDS011;8175;49.326;12.690;2023-04-05T15:47:15;3.20;;;2.50;;
16139;SDS011;8175;49.326;12.690;2023-04-05T15:49:41;3.30;;;2.50;;
16139;SDS011;8175;49.326;12.690;2023-04-05T15:52:09;3.20;;;2.20;;
16139;SDS011;8175;49.326;12.690;2023-04-05T15:54:35;7.70;;;5.60;;
16139;SDS011;8175;49.326;12.690;2023-04-05T15:57:01;3.73;;;2.50;;
16139;SDS011;8175;49.326;12.690;2023-04-05T15:59:27;2.57;;;2.30;;
16139;SDS011;8175;49.326;12.690;2023-04-05T16:01:52;4.53;;;3.53;;
16139;SDS011;8175;49.326;12.690;2023-04-05T16:04:18;6.57;;;4.40;;
16139;SDS011;8175;49.326;12.690;2023-04-05T16:06:44;3.23;;;2.63;;
16139;SDS011;8175;49.326;12.690;2023-04-05T16:09:10;3.70;;;2.70;;
16139;SDS011;8175;49.326;12.690;2023-04-05T16:11:36;2.80;;;2.37;;
16139;SDS011;8175;49.326;12.690;2023-04-05T16:14:02;3.00;;;2.33;;
16139;SDS011;8175;49.326;12.690;2023-04-05T16:16:28;2.83;;;2.53;;
16139;SDS011;8175;49.326;12.690;2023-04-05T16:18:54;2.90;;;2.10;;
16139;SDS011;8175;49.326;12.690;2023-04-05T16:21:20;4.47;;;2.47;;
16139;SDS011;8175;49.326;12.690;2023-04-05T16:23:45;3.23;;;2.43;;
16139;SDS011;8175;49.326;12.690;2023-04-05T16:26:11;3.33;;;2.60;;
16139;SDS011;8175;49.326;12.690;2023-04-05T16:28:37;2.73;;;2.23;;
16139;SDS011;8175;49.326;12.690;2023-04-05T16:31:04;3.20;;;2.33;;
16139;SDS011;8175;49.326;12.690;2023-04-05T16:33:30;3.83;;;2.40;;
16139;SDS011;8175;49.326;12.690;2023-04-05T16:35:55;4.60;;;2.50;;
16139;SDS011;8175;49.326;12.690;2023-04-05T16:38:21;3.97;;;2.53;;
16139;SDS011;8175;49.326;12.690;2023-04-05T16:40:47;4.20;;;2.33;;
16139;SDS011;8175;49.326;12.690;2023-04-05T16:43:13;3.40;;;1.97;;
16139;SDS011;8175;49.326;12.690;2023-04-05T16:45:39;4.23;;;2.30;;
16139;SDS011;8175;49.326;12.690;2023-04-05T16:48:07;2.63;;;2.40;;
16139;SDS011;8175;49.326;12.690;2023-04-05T16:50:32;2.70;;;2.33;;
16139;SDS011;8175;49.326;12.690;2023-04-05T16:52:58;4.97;;;2.93;;
16139;SDS011;8175;49.326;12.690;2023-04-05T16:55:24;3.17;;;2.83;;
16139;SDS011;8175;49.326;12.690;2023-04-05T16:57:50;3.47;;;2.40;;
16139;SDS011;8175;49.326;12.690;2023-04-05T17:00:18;2.70;;;2.40;;
16139;SDS011;8175;49.326;12.690;2023-04-05T17:02:44;4.70;;;2.80;;
16139;SDS011;8175;49.326;12.690;2023-04-05T17:05:09;6.47;;;3.10;;
16139;SDS011;8175;49.326;12.690;2023-04-05T17:07:35;3.30;;;2.53;;
16139;SDS011;8175;49.326;12.690;2023-04-05T17:10:01;3.57;;;2.87;;
16139;SDS011;8175;49.326;12.690;2023-04-05T17:12:28;3.83;;;2.77;;
16139;SDS011;8175;49.326;12.690;2023-04-05T17:14:54;4.17;;;2.63;;
16139;SDS011;8175;49.326;12.690;2023-04-05T17:17:20;2.70;;;2.43;;
16139;SDS011;8175;49.326;12.690;2023-04-05T17:19:45;4.00;;;3.30;;
16139;SDS011;8175;49.326;12.690;2023-04-05T17:22:12;3.63;;;2.40;;
16139;SDS011;8175;49.326;12.690;2023-04-05T17:24:38;3.13;;;2.83;;
16139;SDS011;8175;49.326;12.690;2023-04-05T17:27:04;3.00;;;2.60;;
16139;SDS011;8175;49.326;12.690;2023-04-05T17:29:30;2.83;;;2.63;;
16139;SDS011;8175;49.326;12.690;2023-04-05T17:31:56;3.10;;;2.57;;
16139;SDS011;8175;49.326;12.690;2023-04-05T17:34:22;5.20;;;3.20;;
16139;SDS011;8175;49.326;12.690;2023-04-05T17:36:48;3.40;;;2.60;;
16139;SDS011;8175;49.326;12.690;2023-04-05T17:39:14;4.90;;;2.50;;
16139;SDS011;8175;49.326;12.690;2023-04-05T17:41:40;4.67;;;2.60;;
16139;SDS011;8175;49.326;12.690;2023-04-05T17:44:05;2.60;;;2.10;;
16139;SDS011;8175;49.326;12.690;2023-04-05T17:46:31;2.70;;;2.50;;
16139;SDS011;8175;49.326;12.690;2023-04-05T17:48:57;2.63;;;2.40;;
16139;SDS011;8175;49.326;12.690;2023-04-05T17:51:23;3.10;;;2.53;;
16139;SDS011;8175;49.326;12.690;2023-04-05T17:53:48;3.07;;;2.73;;
16139;SDS011;8175;49.326;12.690;2023-04-05T17:56:14;3.77;;;2.50;;
16139;SDS011;8175;49.326;12.690;2023-04-05T17:58:40;3.93;;;3.60;;
16139;SDS011;8175;49.326;12.690;2023-04-05T18:01:06;3.03;;;2.60;;
16139;SDS011;8175;49.326;12.690;2023-04-05T18:03:35;3.93;;;2.70;;
16139;SDS011;8175;49.326;12.690;2023-04-05T18:06:01;3.50;;;2.93;;
16139;SDS011;8175;49.326;12.690;2023-04-05T18:08:27;3.57;;;2.90;;
16139;SDS011;8175;49.326;12.690;2023-04-05T18:10:55;4.80;;;3.07;;
16139;SDS011;8175;49.326;12.690;2023-04-05T18:13:22;3.50;;;3.20;;
16139;SDS011;8175;49.326;12.690;2023-04-05T18:15:51;3.00;;;2.80;;
16139;SDS011;8175;49.326;12.690;2023-04-05T18:18:21;2.53;;;2.33;;
16139;SDS011;8175;49.326;12.690;2023-04-05T18:20:48;4.53;;;3.03;;
16139;SDS011;8175;49.326;12.690;2023-04-05T18:23:14;2.90;;;2.70;;
16139;SDS011;8175;49.326;12.690;2023-04-05T18:25:41;3.73;;;3.33;;
16139;SDS011;8175;49.326;12.690;2023-04-05T18:28:07;4.93;;;3.33;;
16139;SDS011;8175;49.326;12.690;2023-04-05T18:30:33;4.63;;;3.43;;
16139;SDS011;8175;49.326;12.690;2023-04-05T18:32:59;3.97;;;3.27;;
16139;SDS011;8175;49.326;12.690;2023-04-05T18:35:25;3.73;;;2.90;;
16139;SDS011;8175;49.326;12.690;2023-04-05T18:37:51;3.67;;;3.30;;
16139;SDS011;8175;49.326;12.690;2023-04-05T18:40:17;4.07;;;2.90;;
16139;SDS011;8175;49.326;12.690;2023-04-05T18:42:44;3.80;;;3.40;;
16139;SDS011;8175;49.326;12.690;2023-04-05T18:45:10;3.50;;;3.07;;
16139;SDS011;8175;49.326;12.690;2023-04-05T18:47:36;3.67;;;3.30;;
16139;SDS011;8175;49.326;12.690;2023-04-05T18:50:02;3.87;;;2.90;;
16139;SDS011;8175;49.326;12.690;2023-04-05T18:52:28;4.27;;;3.33;;
16139;SDS011;8175;49.326;12.690;2023-04-05T18:54:58;6.43;;;2.97;;
16139;SDS011;8175;49.326;12.690;2023-04-05T18:57:25;4.40;;;3.20;;
16139;SDS011;8175;49.326;12.690;2023-04-05T18:59:51;4.27;;;2.73;;
16139;SDS011;8175;49.326;12.690;2023-04-05T19:02:16;3.13;;;2.80;;
16139;SDS011;8175;49.326;12.690;2023-04-05T19:04:42;3.60;;;3.27;;
16139;SDS011;8175;49.326;12.690;2023-04-05T19:07:07;3.60;;;3.17;;
16139;SDS011;8175;49.326;12.690;2023-04-05T19:09:33;2.90;;;2.70;;
16139;SDS011;8175;49.326;12.690;2023-04-05T19:11:59;2.90;;;2.63;;
16139;SDS011;8175;49.326;12.690;2023-04-05T19:14:24;4.77;;;3.10;;
16139;SDS011;8175;49.326;12.690;2023-04-05T19:16:50;3.90;;;3.17;;
16139;SDS011;8175;49.326;12.690;2023-04-05T19:19:16;3.27;;;2.93;;
16139;SDS011;8175;49.326;12.690;2023-04-05T19:21:43;3.73;;;3.40;;
16139;SDS011;8175;49.326;12.690;2023-04-05T19:24:09;4.17;;;3.67;;
16139;SDS011;8175;49.326;12.690;2023-04-05T19:26:37;3.93;;;2.73;;
16139;SDS011;8175;49.326;12.690;2023-04-05T19:29:03;5.63;;;3.23;;
16139;SDS011;8175;49.326;12.690;2023-04-05T19:31:29;3.47;;;3.17;;
16139;SDS011;8175;49.326;12.690;2023-04-05T19:33:56;3.97;;;3.40;;
16139;SDS011;8175;49.326;12.690;2023-04-05T19:36:21;3.70;;;3.40;;
16139;SDS011;8175;49.326;12.690;2023-04-05T19:38:47;3.70;;;3.27;;
16139;SDS011;8175;49.326;12.690;2023-04-05T19:41:15;3.97;;;3.43;;
16139;SDS011;8175;49.326;12.690;2023-04-05T19:43:42;4.70;;;3.30;;
16139;SDS011;8175;49.326;12.690;2023-04-05T19:46:08;4.23;;;2.73;;
16139;SDS011;8175;49.326;12.690;2023-04-05T19:51:04;3.30;;;3.07;;
16139;SDS011;8175;49.326;12.690;2023-04-05T19:53:37;5.17;;;3.30;;
16139;SDS011;8175;49.326;12.690;2023-04-05T19:56:09;3.97;;;3.30;;
16139;SDS011;8175;49.326;12.690;2023-04-05T19:58:43;4.13;;;3.50;;
16139;SDS011;8175;49.326;12.690;2023-04-05T20:01:10;3.47;;;2.93;;